sensor_id;sensor_type;location;lat;lon;timestamp;P1;durP1;ratioP1;P2;durP2;ratioP2
7585;SDS011;12459;42.646;23.292;2023-07-08T00:04:19;37.17;;;35.47;;
7585;SDS011;12459;42.646;23.292;2023-07-08T00:19:21;39.20;;;37.40;;
7585;SDS011;12459;42.646;23.292;2023-07-08T00:34:25;38.17;;;36.43;;
7585;SDS011;12459;42.646;23.292;2023-07-08T00:49:49;37.43;;;35.73;;
7585;SDS011;12459;42.646;23.292;2023-07-08T01:05:00;35.30;;;33.70;;
7585;SDS011;12459;42.646;23.292;2023-07-08T01:20:06;32.63;;;31.13;;
7585;SDS011;12459;42.646;23.292;2023-07-08T01:35:13;35.33;;;33.70;;
7585;SDS011;12459;42.646;23.292;2023-07-08T01:50:16;36.50;;;34.80;;
7585;SDS011;12459;42.646;23.292;2023-07-08T02:05:19;34.83;;;33.23;;
7585;SDS011;12459;42.646;23.292;2023-07-08T02:20:21;36.10;;;34.40;;
7585;SDS011;12459;42.646;23.292;2023-07-08T02:35:24;35.70;;;34.03;;
7585;SDS011;12459;42.646;23.292;2023-07-08T02:50:27;33.00;;;31.50;;
7585;SDS011;12459;42.646;23.292;2023-07-08T03:05:29;34.33;;;32.73;;
7585;SDS011;12459;42.646;23.292;2023-07-08T03:20:32;39.03;;;37.23;;
7585;SDS011;12459;42.646;23.292;2023-07-08T03:35:34;37.67;;;35.97;;
7585;SDS011;12459;42.646;23.292;2023-07-08T03:50:36;32.53;;;30.93;;
7585;SDS011;12459;42.646;23.292;2023-07-08T04:05:37;36.20;;;34.53;;
7585;SDS011;12459;42.646;23.292;2023-07-08T04:20:39;38.07;;;36.33;;
7585;SDS011;12459;42.646;23.292;2023-07-08T04:35:41;38.73;;;36.93;;
7585;SDS011;12459;42.646;23.292;2023-07-08T04:50:45;33.10;;;31.60;;
7585;SDS011;12459;42.646;23.292;2023-07-08T05:05:48;38.97;;;37.17;;
7585;SDS011;12459;42.646;23.292;2023-07-08T05:20:50;43.63;;;41.63;;
7585;SDS011;12459;42.646;23.292;2023-07-08T05:35:53;42.27;;;40.37;;
7585;SDS011;12459;42.646;23.292;2023-07-08T05:50:55;41.40;;;39.50;;
7585;SDS011;12459;42.646;23.292;2023-07-08T06:05:58;47.33;;;45.17;;
7585;SDS011;12459;42.646;23.292;2023-07-08T06:20:59;38.93;;;37.13;;
7585;SDS011;12459;42.646;23.292;2023-07-08T06:36:03;38.27;;;36.50;;
7585;SDS011;12459;42.646;23.292;2023-07-08T06:51:06;38.13;;;36.37;;
7585;SDS011;12459;42.646;23.292;2023-07-08T07:06:08;36.93;;;35.23;;
7585;SDS011;12459;42.646;23.292;2023-07-08T07:21:10;39.83;;;38.00;;
7585;SDS011;12459;42.646;23.292;2023-07-08T07:36:12;34.27;;;32.67;;
7585;SDS011;12459;42.646;23.292;2023-07-08T07:51:13;40.47;;;38.60;;
7585;SDS011;12459;42.646;23.292;2023-07-08T08:06:15;41.60;;;39.70;;
7585;SDS011;12459;42.646;23.292;2023-07-08T08:21:19;45.50;;;43.40;;
7585;SDS011;12459;42.646;23.292;2023-07-08T08:36:21;45.40;;;43.30;;
7585;SDS011;12459;42.646;23.292;2023-07-08T08:51:22;51.03;;;48.73;;
7585;SDS011;12459;42.646;23.292;2023-07-08T09:06:29;48.33;;;46.13;;
7585;SDS011;12459;42.646;23.292;2023-07-08T09:21:39;45.30;;;43.23;;
7585;SDS011;12459;42.646;23.292;2023-07-08T09:36:49;46.20;;;44.10;;
7585;SDS011;12459;42.646;23.292;2023-07-08T09:51:53;48.43;;;46.23;;
7585;SDS011;12459;42.646;23.292;2023-07-08T10:06:55;49.63;;;47.40;;
7585;SDS011;12459;42.646;23.292;2023-07-08T11:23:25;54.57;;;52.10;;
7585;SDS011;12459;42.646;23.292;2023-07-08T11:38:33;57.73;;;55.13;;
7585;SDS011;12459;42.646;23.292;2023-07-08T11:53:49;62.63;;;59.83;;
7585;SDS011;12459;42.646;23.292;2023-07-08T12:09:00;53.83;;;51.43;;
7585;SDS011;12459;42.646;23.292;2023-07-08T12:39:28;52.67;;;50.27;;
7585;SDS011;12459;42.646;23.292;2023-07-08T12:54:34;51.60;;;49.30;;
7585;SDS011;12459;42.646;23.292;2023-07-08T13:09:42;45.53;;;43.43;;
7585;SDS011;12459;42.646;23.292;2023-07-08T13:24:47;55.43;;;52.93;;
7585;SDS011;12459;42.646;23.292;2023-07-08T13:39:49;55.47;;;52.97;;
7585;SDS011;12459;42.646;23.292;2023-07-08T13:54:57;45.83;;;43.73;;
7585;SDS011;12459;42.646;23.292;2023-07-08T14:10:12;57.93;;;55.33;;
7585;SDS011;12459;42.646;23.292;2023-07-08T14:25:14;52.97;;;50.57;;
7585;SDS011;12459;42.646;23.292;2023-07-08T14:40:21;44.37;;;42.37;;
7585;SDS011;12459;42.646;23.292;2023-07-08T14:55:26;39.00;;;37.20;;
7585;SDS011;12459;42.646;23.292;2023-07-08T15:10:29;48.53;;;46.33;;
7585;SDS011;12459;42.646;23.292;2023-07-08T15:25:31;53.67;;;51.27;;
7585;SDS011;12459;42.646;23.292;2023-07-08T15:40:35;55.13;;;52.63;;
7585;SDS011;12459;42.646;23.292;2023-07-08T15:55:40;48.47;;;46.27;;
7585;SDS011;12459;42.646;23.292;2023-07-08T16:10:44;52.83;;;50.43;;
7585;SDS011;12459;42.646;23.292;2023-07-08T16:25:52;57.00;;;54.43;;
7585;SDS011;12459;42.646;23.292;2023-07-08T16:40:55;42.23;;;40.33;;
7585;SDS011;12459;42.646;23.292;2023-07-08T16:55:57;53.03;;;50.63;;
7585;SDS011;12459;42.646;23.292;2023-07-08T17:10:59;52.20;;;49.83;;
7585;SDS011;12459;42.646;23.292;2023-07-08T17:26:01;42.53;;;40.57;;
7585;SDS011;12459;42.646;23.292;2023-07-08T17:41:03;43.00;;;41.07;;
7585;SDS011;12459;42.646;23.292;2023-07-08T17:56:08;38.80;;;37.00;;
7585;SDS011;12459;42.646;23.292;2023-07-08T18:11:20;46.33;;;44.23;;
7585;SDS011;12459;42.646;23.292;2023-07-08T18:26:25;42.40;;;40.47;;
7585;SDS011;12459;42.646;23.292;2023-07-08T18:41:30;48.27;;;46.07;;
7585;SDS011;12459;42.646;23.292;2023-07-08T18:56:39;39.40;;;37.60;;
7585;SDS011;12459;42.646;23.292;2023-07-08T19:11:41;49.63;;;47.40;;
7585;SDS011;12459;42.646;23.292;2023-07-08T19:26:43;45.93;;;43.83;;
7585;SDS011;12459;42.646;23.292;2023-07-08T19:41:45;37.50;;;35.80;;
7585;SDS011;12459;42.646;23.292;2023-07-08T19:56:47;45.47;;;43.37;;
7585;SDS011;12459;42.646;23.292;2023-07-08T20:11:49;40.93;;;39.03;;
7585;SDS011;12459;42.646;23.292;2023-07-08T20:26:51;40.53;;;38.67;;
7585;SDS011;12459;42.646;23.292;2023-07-08T20:41:53;41.07;;;39.17;;
7585;SDS011;12459;42.646;23.292;2023-07-08T20:56:55;41.80;;;39.90;;
7585;SDS011;12459;42.646;23.292;2023-07-08T21:11:57;39.00;;;37.20;;
7585;SDS011;12459;42.646;23.292;2023-07-08T21:26:58;39.00;;;37.20;;
7585;SDS011;12459;42.646;23.292;2023-07-08T21:42:00;42.10;;;40.20;;
7585;SDS011;12459;42.646;23.292;2023-07-08T21:57:03;38.53;;;36.73;;
7585;SDS011;12459;42.646;23.292;2023-07-08T22:12:07;32.97;;;31.47;;
7585;SDS011;12459;42.646;23.292;2023-07-08T22:27:13;37.53;;;35.83;;
7585;SDS011;12459;42.646;23.292;2023-07-08T22:42:15;38.33;;;36.53;;
7585;SDS011;12459;42.646;23.292;2023-07-08T22:57:18;39.70;;;37.90;;
7585;SDS011;12459;42.646;23.292;2023-07-08T23:12:20;38.20;;;36.40;;
7585;SDS011;12459;42.646;23.292;2023-07-08T23:27:22;37.77;;;36.07;;
7585;SDS011;12459;42.646;23.292;2023-07-08T23:42:24;37.53;;;35.83;;
7585;SDS011;12459;42.646;23.292;2023-07-08T23:57:26;36.17;;;34.47;;
